Time;durP1;ratioP1;P1;durP2;ratioP2;P2;SDS_P1;SDS_P2;PMS_P1;PMS_P2;Temp;Humidity;BMP_temperature;BMP_pressure;BME280_temperature;BME280_humidity;BME280_pressure;Samples;Min_cycle;Max_cycle;Signal;HPM_P1;HPM_P2
2021/06/15 00:03:46;;;;;;;9.1;6.5;;;;;;;10;100;98942.96;;;;
2021/06/15 00:13:44;;;;;;;11;6;;;;;;;9.9;100;98935.05;;;;
2021/06/15 00:23:43;;;;;;;6.9;4.5;;;;;;;9.77;100;98933.92;;;;
2021/06/15 00:33:41;;;;;;;7.5;4.7;;;;;;;9.59;100;98943.61;;;;
2021/06/15 00:43:40;;;;;;;7.8;4.3;;;;;;;9.43;100;98933.38;;;;
2021/06/15 00:53:38;;;;;;;8.7;5.7;;;;;;;9.32;100;98930.02;;;;
2021/06/15 01:03:37;;;;;;;7.5;5;;;;;;;9.25;100;98923.41;;;;
2021/06/15 01:13:35;;;;;;;8.1;5.4;;;;;;;9.32;100;98915.77;;;;
2021/06/15 01:23:55;;;;;;;9.5;6.3;;;;;;;9.27;100;98905.08;;;;
2021/06/15 01:33:32;;;;;;;8.4;5.5;;;;;;;9.19;100;98897.68;;;;
2021/06/15 01:43:31;;;;;;;11.6;6.1;;;;;;;9.09;100;98894.02;;;;
2021/06/15 01:53:29;;;;;;;11.6;5.8;;;;;;;8.94;100;98898.82;;;;
2021/06/15 02:03:27;;;;;;;11.4;6.1;;;;;;;8.75;100;98887.22;;;;
2021/06/15 02:13:26;;;;;;;7.8;5.7;;;;;;;8.65;100;98884.66;;;;
2021/06/15 02:23:24;;;;;;;7.4;4.8;;;;;;;8.57;100;98883.44;;;;
2021/06/15 02:33:23;;;;;;;8.3;6.1;;;;;;;8.53;100;98882.41;;;;
2021/06/15 02:43:23;;;;;;;12.3;5.7;;;;;;;8.41;100;98881.99;;;;
2021/06/15 02:53:19;;;;;;;8.3;5.4;;;;;;;8.43;100;98888.7;;;;
2021/06/15 03:03:18;;;;;;;7;5.8;;;;;;;8.45;100;98886.52;;;;
2021/06/15 03:13:16;;;;;;;10.9;6.4;;;;;;;8.54;100;98878.61;;;;
2021/06/15 03:23:14;;;;;;;9.5;5.2;;;;;;;8.83;100;98886.59;;;;
2021/06/15 03:33:13;;;;;;;11.6;6.3;;;;;;;9.17;100;98884.52;;;;
2021/06/15 03:43:11;;;;;;;8.2;5.5;;;;;;;9.48;100;98887.55;;;;
2021/06/15 03:53:10;;;;;;;7.9;4.7;;;;;;;9.84;100;98903.94;;;;
2021/06/15 04:03:08;;;;;;;5.9;4.8;;;;;;;10.29;100;98907.75;;;;
2021/06/15 04:13:07;;;;;;;9.5;5.3;;;;;;;10.74;100;98909.58;;;;
2021/06/15 04:23:06;;;;;;;7.5;5.3;;;;;;;11.15;100;98914.91;;;;
2021/06/15 04:33:06;;;;;;;8.3;5.7;;;;;;;11.58;100;98909.91;;;;
2021/06/15 04:43:17;;;;;;;10.6;4.5;;;;;;;12.11;100;98905.36;;;;
2021/06/15 04:53:03;;;;;;;7.3;4.3;;;;;;;12.85;100;98908.22;;;;
2021/06/15 05:03:01;;;;;;;6.3;3.9;;;;;;;13.34;100;98923.31;;;;
2021/06/15 05:13:00;;;;;;;6.8;5.2;;;;;;;13.87;100;98923;;;;
2021/06/15 05:23:03;;;;;;;7.9;5.2;;;;;;;14.32;100;98922.59;;;;
2021/06/15 05:32:58;;;;;;;8.7;4.9;;;;;;;14.86;100;98926.39;;;;
2021/06/15 05:42:58;;;;;;;9.3;5.6;;;;;;;15.08;100;98935.06;;;;
2021/06/15 05:52:56;;;;;;;9.3;6.3;;;;;;;15.38;100;98954.83;;;;
2021/06/15 06:02:55;;;;;;;11.4;7.1;;;;;;;15.81;100;98970.86;;;;
2021/06/15 06:12:54;;;;;;;11.8;8.1;;;;;;;16.01;100;98966.52;;;;
2021/06/15 06:22:54;;;;;;;15.5;10.8;;;;;;;16.31;100;98981.62;;;;
2021/06/15 06:32:53;;;;;;;12.3;9.4;;;;;;;16.6;100;98986.13;;;;
2021/06/15 06:42:53;;;;;;;15;9;;;;;;;16.94;100;98979.47;;;;
2021/06/15 06:52:52;;;;;;;15.1;9.5;;;;;;;17.57;100;98980.72;;;;
2021/06/15 07:02:51;;;;;;;10.5;6.5;;;;;;;17.67;96.2666;98979.48;;;;
2021/06/15 07:12:51;;;;;;;20.9;6.9;;;;;;;18.37;94.91113;98976.02;;;;
2021/06/15 07:22:51;;;;;;;11.4;5.7;;;;;;;18.71;89.23926;98974.59;;;;
2021/06/15 07:32:55;;;;;;;10.9;6.7;;;;;;;19.02;87.94727;98984.75;;;;
2021/06/15 07:42:50;;;;;;;8.1;5.3;;;;;;;19.48;85.66211;98964.77;;;;
2021/06/15 07:52:50;;;;;;;11.4;5.6;;;;;;;19.69;85.4375;98955.44;;;;
2021/06/15 08:02:50;;;;;;;8.5;4.9;;;;;;;20.39;86.37793;98953.36;;;;
2021/06/15 08:12:49;;;;;;;6.4;2;;;;;;;20.65;83.38672;98942.5;;;;
2021/06/15 08:22:49;;;;;;;6.2;2.6;;;;;;;20.59;78.45313;98944.73;;;;
2021/06/15 08:32:49;;;;;;;6.9;2.4;;;;;;;20.83;75.90723;98937.3;;;;
2021/06/15 08:42:49;;;;;;;4.6;2.3;;;;;;;21.16;72.46973;98944.91;;;;
2021/06/15 08:52:49;;;;;;;6.2;2.8;;;;;;;21.48;72.54492;98936;;;;
2021/06/15 09:02:49;;;;;;;10;3.7;;;;;;;21.88;72.13477;98938.08;;;;
2021/06/15 09:12:49;;;;;;;5.4;2.8;;;;;;;21.95;71.6123;98935.45;;;;
2021/06/15 09:22:50;;;;;;;4.6;2.1;;;;;;;22.16;68.0459;98942.34;;;;
2021/06/15 09:32:50;;;;;;;5.5;2.7;;;;;;;22.4;66.8623;98939.87;;;;
2021/06/15 09:42:50;;;;;;;5.6;2.3;;;;;;;22.15;63.55762;98924.28;;;;
2021/06/15 09:52:50;;;;;;;7.4;2.4;;;;;;;21.71;64.40234;98913.95;;;;
2021/06/15 10:02:50;;;;;;;6.2;2.7;;;;;;;22.23;64.34766;98909.47;;;;
2021/06/15 10:12:51;;;;;;;4.3;2.6;;;;;;;22.64;63.83594;98913;;;;
2021/06/15 10:22:51;;;;;;;6.1;2.3;;;;;;;22.94;59.80078;98897.96;;;;
2021/06/15 10:32:51;;;;;;;6.3;2;;;;;;;23.62;60.68555;98890.94;;;;
2021/06/15 10:42:52;;;;;;;5.9;2.3;;;;;;;23.23;57.92383;98879.7;;;;
2021/06/15 10:52:52;;;;;;;4.7;2.2;;;;;;;23.77;63.15723;98876.08;;;;
2021/06/15 11:02:52;;;;;;;6;2.7;;;;;;;23.83;58.58594;98855.24;;;;
2021/06/15 11:22:53;;;;;;;4;1.9;;;;;;;24.5;54.53613;98849.09;;;;
2021/06/15 11:33:02;;;;;;;3.9;1.9;;;;;;;24.38;53.52539;98830.18;;;;
2021/06/15 11:42:54;;;;;;;7.2;2.7;;;;;;;25.16;52.4082;98819.09;;;;
2021/06/15 11:52:55;;;;;;;6.8;3.7;;;;;;;25.09;53.31641;98821.88;;;;
2021/06/15 12:02:55;;;;;;;5;2.3;;;;;;;24.68;51.36719;98814.02;;;;
2021/06/15 12:12:56;;;;;;;5.6;2.7;;;;;;;25;49.13477;98808.48;;;;
2021/06/15 12:22:57;;;;;;;6.8;2.4;;;;;;;25.52;50.05176;98809.52;;;;
2021/06/15 12:32:57;;;;;;;4.8;2.1;;;;;;;25.81;48.71777;98799.91;;;;
2021/06/15 12:42:58;;;;;;;7.9;2.9;;;;;;;25.88;48.54883;98797.11;;;;
2021/06/15 12:52:59;;;;;;;10.2;3.3;;;;;;;26.14;44.2959;98787.44;;;;
2021/06/15 13:02:59;;;;;;;4.6;1.8;;;;;;;26.56;44.78516;98780.02;;;;
2021/06/15 13:13:02;;;;;;;4.6;2.2;;;;;;;26.36;43.37207;98769.54;;;;
2021/06/15 13:23:01;;;;;;;5.6;1.9;;;;;;;26.71;42.7666;98765.66;;;;
2021/06/15 13:33:01;;;;;;;5.8;3.1;;;;;;;26.69;39.99805;98751.44;;;;
2021/06/15 13:43:02;;;;;;;4.5;2.3;;;;;;;27.31;37.82422;98742.08;;;;
2021/06/15 13:53:03;;;;;;;7.5;2.2;;;;;;;27.07;38.58594;98732.11;;;;
2021/06/15 14:03:03;;;;;;;4.5;1.7;;;;;;;27.26;35.37695;98734.23;;;;
2021/06/15 14:13:04;;;;;;;5;1.7;;;;;;;27.38;35.56445;98719.84;;;;
2021/06/15 14:23:05;;;;;;;5.2;2.2;;;;;;;27.53;36.6084;98714.91;;;;
2021/06/15 14:33:06;;;;;;;11.1;2.4;;;;;;;27.81;35.50391;98715.27;;;;
2021/06/15 14:43:07;;;;;;;8.9;3.9;;;;;;;27.88;33.92871;98706.86;;;;
2021/06/15 14:53:08;;;;;;;4.1;2.8;;;;;;;28.11;33.76758;98708.91;;;;
2021/06/15 15:03:08;;;;;;;5.3;2.6;;;;;;;29.43;32.33984;98694.84;;;;
2021/06/15 15:13:09;;;;;;;5.4;2;;;;;;;30.17;30.6709;98692.31;;;;
2021/06/15 15:23:11;;;;;;;12.5;3.5;;;;;;;30.81;29.88867;98683.08;;;;
2021/06/15 15:33:12;;;;;;;4.9;2.1;;;;;;;29.89;31.04688;98677.13;;;;
2021/06/15 15:43:13;;;;;;;6.2;3;;;;;;;30.29;31.44434;98676.94;;;;
2021/06/15 15:53:15;;;;;;;6.7;3.2;;;;;;;29.01;33.5498;98673.55;;;;
2021/06/15 16:03:16;;;;;;;5.6;2.5;;;;;;;30.07;32.44531;98676.69;;;;
2021/06/15 16:13:17;;;;;;;5.6;2.2;;;;;;;29.72;32.86133;98661.64;;;;
2021/06/15 16:23:18;;;;;;;7;3;;;;;;;31.94;31.15137;98660.13;;;;
2021/06/15 16:33:20;;;;;;;5.4;2.6;;;;;;;33.31;29.08887;98664.05;;;;
2021/06/15 16:43:21;;;;;;;7.4;3.1;;;;;;;33.42;29.38477;98658.84;;;;
2021/06/15 16:53:23;;;;;;;7.8;2.9;;;;;;;30.49;32.29492;98660.13;;;;
2021/06/15 17:03:24;;;;;;;7.6;3.2;;;;;;;28.88;33.96777;98650.42;;;;
2021/06/15 17:13:25;;;;;;;5.9;2.5;;;;;;;27.28;37.88086;98643.28;;;;
2021/06/15 17:23:26;;;;;;;44.8;22.4;;;;;;;25.9;40.1875;98648.34;;;;
2021/06/15 17:33:27;;;;;;;23.5;8.7;;;;;;;26.51;39.80469;98643.05;;;;
2021/06/15 17:43:28;;;;;;;31.7;13.3;;;;;;;28.06;37.18652;98650.36;;;;
2021/06/15 17:53:29;;;;;;;52.6;29.4;;;;;;;27.37;37.03516;98651.84;;;;
2021/06/15 18:03:31;;;;;;;290.1;162.6;;;;;;;25.89;45.04883;98646;;;;
2021/06/15 18:13:33;;;;;;;9.8;4;;;;;;;24.12;51.90234;98646.81;;;;
2021/06/15 18:23:31;;;;;;;16.4;13.1;;;;;;;23.19;55.54688;98650.64;;;;
2021/06/15 18:33:31;;;;;;;12.6;4.6;;;;;;;22.24;59.14746;98655.7;;;;
2021/06/15 18:43:32;;;;;;;10;5.6;;;;;;;21.2;67.02051;98658.72;;;;
2021/06/15 18:53:31;;;;;;;13.3;9.1;;;;;;;20.19;67.82813;98665.2;;;;
2021/06/15 19:03:31;;;;;;;16.4;9.9;;;;;;;19.34;78.43945;98668.44;;;;
2021/06/15 19:13:31;;;;;;;10.6;7;;;;;;;18.8;79.12695;98691.22;;;;
2021/06/15 19:23:31;;;;;;;19.8;12.2;;;;;;;18.24;79.1084;98690.73;;;;
2021/06/15 19:33:32;;;;;;;21.5;13.7;;;;;;;17.63;79.9043;98701.34;;;;
2021/06/15 19:43:32;;;;;;;11.7;7.5;;;;;;;17.22;78.58301;98710.72;;;;
2021/06/15 19:53:29;;;;;;;9.5;5.5;;;;;;;17.13;81.15332;98704.64;;;;
2021/06/15 20:03:28;;;;;;;11.6;5.5;;;;;;;17.01;80.48047;98702.75;;;;
2021/06/15 20:13:28;;;;;;;12.7;5.6;;;;;;;16.91;79.05371;98700.53;;;;
2021/06/15 20:23:28;;;;;;;10.3;6.3;;;;;;;16.82;80.56055;98713.5;;;;
2021/06/15 20:33:26;;;;;;;20.1;9.6;;;;;;;16.46;81.7959;98705.38;;;;
2021/06/15 20:43:25;;;;;;;15.6;9.8;;;;;;;16.17;81.43359;98705.66;;;;
2021/06/15 20:53:25;;;;;;;10.5;4.5;;;;;;;15.85;84.61328;98691.84;;;;
2021/06/15 21:03:24;;;;;;;12.9;6.4;;;;;;;15.59;85.29297;98696.78;;;;
2021/06/15 21:13:23;;;;;;;12.8;8.1;;;;;;;15.31;88.29688;98701.2;;;;
2021/06/15 21:23:22;;;;;;;9.6;8.3;;;;;;;15.07;93.01953;98710.87;;;;
2021/06/15 21:33:22;;;;;;;13.5;9.5;;;;;;;14.83;95.76758;98716.19;;;;
2021/06/15 21:43:20;;;;;;;10.3;7.5;;;;;;;14.63;97.57813;98727.05;;;;
2021/06/15 21:53:19;;;;;;;11.3;8;;;;;;;14.39;100;98727.69;;;;
2021/06/15 22:03:18;;;;;;;12.3;8;;;;;;;14.18;100;98726.82;;;;
2021/06/15 22:13:17;;;;;;;11;7.7;;;;;;;13.97;100;98722.14;;;;
2021/06/15 22:23:16;;;;;;;10.8;8.4;;;;;;;13.77;100;98727.49;;;;
2021/06/15 22:33:15;;;;;;;19.3;8.8;;;;;;;13.57;100;98712.75;;;;
2021/06/15 22:43:14;;;;;;;11.5;6.6;;;;;;;13.36;100;98711.86;;;;
2021/06/15 22:53:13;;;;;;;12.8;7.7;;;;;;;13.18;100;98721.12;;;;
2021/06/15 23:03:12;;;;;;;16.3;10;;;;;;;12.98;100;98717.91;;;;
2021/06/15 23:13:11;;;;;;;15.7;10;;;;;;;12.87;100;98715.87;;;;
2021/06/15 23:23:10;;;;;;;14.3;9.5;;;;;;;12.72;100;98714.43;;;;
2021/06/15 23:33:09;;;;;;;11;7.5;;;;;;;12.61;100;98723.96;;;;
2021/06/15 23:43:07;;;;;;;14.5;9.5;;;;;;;12.52;100;98725.88;;;;
2021/06/15 23:53:06;;;;;;;11.9;9.1;;;;;;;12.4;100;98729.19;;;;
